Time;durP1;ratioP1;P1;durP2;ratioP2;P2;SDS_P1;SDS_P2;PMS_P1;PMS_P2;Temp;Humidity;BMP_temperature;BMP_pressure;BME280_temperature;BME280_humidity;BME280_pressure;Samples;Min_cycle;Max_cycle;Signal;HPM_P1;HPM_P2
2023/08/18 00:00:49;;;;;;;11.00;5.12;;;;;;;20.85;100.00;100471.27;1518808;86;22290;-85
2023/08/18 00:03:16;;;;;;;7.22;5.20;;;;;;;20.85;100.00;100486.88;1512599;85;21461;-84
2023/08/18 00:05:42;;;;;;;5.75;5.17;;;;;;;20.85;100.00;100486.88;1502704;86;21382;-84
2023/08/18 00:08:08;;;;;;;11.73;5.42;;;;;;;20.84;100.00;100489.80;1510613;86;21358;-84
2023/08/18 00:10:34;;;;;;;11.15;6.08;;;;;;;20.81;100.00;100490.23;1493087;86;21617;-83
2023/08/18 00:13:20;;;;;;;10.08;5.45;;;;;;;20.82;100.00;100489.18;1510793;86;21571;-84
2023/08/18 00:16:05;;;;;;;5.17;4.67;;;;;;;20.76;100.00;100480.63;1513608;86;21660;-84
2023/08/18 00:18:50;;;;;;;11.73;5.72;;;;;;;20.76;100.00;100492.20;1515483;86;21543;-84
2023/08/18 00:21:35;;;;;;;5.80;5.25;;;;;;;20.73;100.00;100492.11;1513846;86;21484;-84
2023/08/18 00:24:20;;;;;;;8.98;5.40;;;;;;;20.71;100.00;100494.20;1510108;84;21520;-87
2023/08/18 00:27:05;;;;;;;8.03;5.15;;;;;;;20.71;100.00;100494.20;1519132;86;21440;-85
2023/08/18 00:29:50;;;;;;;10.40;5.33;;;;;;;20.68;100.00;100502.66;1511723;86;22614;-86
2023/08/18 00:32:35;;;;;;;6.62;5.33;;;;;;;20.67;100.00;100496.99;1510265;86;21462;-85
2023/08/18 00:35:21;;;;;;;10.85;6.30;;;;;;;20.65;100.00;100503.09;1503298;86;21639;-85
2023/08/18 00:38:06;;;;;;;6.62;5.92;;;;;;;20.63;100.00;100506.53;1513201;86;22378;-85
2023/08/18 00:40:51;;;;;;;6.78;6.10;;;;;;;20.64;100.00;100515.42;1513649;86;21535;-87
2023/08/18 00:43:36;;;;;;;8.53;5.28;;;;;;;20.63;100.00;100529.39;1515449;86;21594;-87
2023/08/18 00:46:21;;;;;;;18.27;7.67;;;;;;;20.64;100.00;100545.00;1518437;86;22349;-86
2023/08/18 00:49:09;;;;;;;13.20;7.20;;;;;;;20.65;100.00;100551.50;1515700;86;21476;-86
2023/08/18 00:51:56;;;;;;;11.55;5.65;;;;;;;20.68;100.00;100562.35;1509583;86;22335;-86
2023/08/18 00:54:41;;;;;;;13.65;8.55;;;;;;;20.75;100.00;100599.48;1512899;86;22533;-85
2023/08/18 00:57:26;;;;;;;11.30;7.20;;;;;;;20.76;100.00;100600.30;1511482;86;21440;-85
2023/08/18 01:00:12;;;;;;;9.73;6.08;;;;;;;20.69;100.00;100568.87;1513606;86;21973;-86
2023/08/18 01:02:58;;;;;;;15.90;5.92;;;;;;;20.73;100.00;100602.89;1509066;86;21439;-86
2023/08/18 01:05:43;;;;;;;10.18;7.25;;;;;;;20.77;100.00;100605.45;1510507;86;21461;-87
2023/08/18 01:08:28;;;;;;;12.58;7.30;;;;;;;20.72;100.00;100589.97;1499704;86;21609;-85
2023/08/18 01:11:26;;;;;;;12.45;6.42;;;;;;;20.72;100.00;100580.56;1482649;86;21469;-85
2023/08/18 01:14:37;;;;;;;11.33;6.85;;;;;;;20.72;100.00;100580.56;1497448;86;21579;-86
2023/08/18 01:17:29;;;;;;;6.20;5.62;;;;;;;20.73;100.00;100583.55;1515628;86;21484;-86
2023/08/18 01:20:16;;;;;;;12.23;6.53;;;;;;;20.76;100.00;100586.33;1513051;86;22119;-85
2023/08/18 01:23:02;;;;;;;7.20;5.72;;;;;;;20.76;100.00;100578.79;1515123;84;21447;-85
2023/08/18 01:25:47;;;;;;;10.45;5.92;;;;;;;20.78;100.00;100576.72;1544052;84;21491;-85
2023/08/18 01:28:36;;;;;;;10.78;6.55;;;;;;;20.78;100.00;100582.10;1533197;84;21447;-85
2023/08/18 01:31:27;;;;;;;9.58;6.70;;;;;;;20.78;100.00;100590.17;1536540;84;21490;-85
2023/08/18 01:34:16;;;;;;;20.10;7.40;;;;;;;20.81;100.00;100589.75;1536869;84;22430;-86
2023/08/18 01:37:02;;;;;;;8.25;6.28;;;;;;;20.82;100.00;100568.00;1541330;84;21623;-85
2023/08/18 01:39:50;;;;;;;6.83;6.08;;;;;;;20.82;100.00;100572.03;1534101;84;22498;-83
2023/08/18 01:42:35;;;;;;;11.18;6.60;;;;;;;20.88;100.00;100581.12;1535770;84;22328;-84
2023/08/18 01:45:04;;;;;;;7.05;6.05;;;;;;;20.90;100.00;100583.09;1536380;84;21461;-84
2023/08/18 01:47:31;;;;;;;9.43;6.45;;;;;;;20.91;100.00;100591.46;1531908;84;21358;-86
2023/08/18 01:49:58;;;;;;;9.05;7.00;;;;;;;20.91;100.00;100594.16;1540370;84;21623;-85
2023/08/18 01:52:24;;;;;;;9.68;7.25;;;;;;;20.88;100.00;100582.47;1536129;84;21594;-87
2023/08/18 01:54:52;;;;;;;12.30;7.50;;;;;;;20.74;100.00;100560.16;1530862;84;22224;-86
2023/08/18 01:57:18;;;;;;;8.50;6.25;;;;;;;20.78;100.00;100561.41;1532116;84;21609;-85
2023/08/18 01:59:44;;;;;;;14.47;6.60;;;;;;;20.81;100.00;100569.58;1535983;84;21527;-84
2023/08/18 02:02:10;;;;;;;12.25;6.83;;;;;;;20.80;100.00;100564.72;1533200;84;21652;-85
2023/08/18 02:04:37;;;;;;;10.80;6.35;;;;;;;20.80;100.00;100566.55;1533723;84;21365;-85
2023/08/18 02:07:03;;;;;;;10.58;6.97;;;;;;;20.75;100.00;100568.55;1529953;84;22577;-85
2023/08/18 02:09:29;;;;;;;11.15;6.35;;;;;;;20.69;100.00;100564.02;1533392;84;22503;-84
2023/08/18 02:11:56;;;;;;;7.45;6.35;;;;;;;20.66;100.00;100559.89;1507799;84;22411;-91
2023/08/18 02:14:22;;;;;;;9.83;6.90;;;;;;;20.58;100.00;100549.88;1509386;84;22326;-85
2023/08/18 02:16:49;;;;;;;9.05;6.42;;;;;;;20.50;100.00;100537.45;1536876;84;22422;-87
2023/08/18 02:19:15;;;;;;;8.10;6.30;;;;;;;20.50;100.00;100537.45;1529576;84;21614;-86
2023/08/18 02:21:41;;;;;;;12.13;7.40;;;;;;;20.53;100.00;100537.86;1508249;84;21921;-87
2023/08/18 02:24:08;;;;;;;12.78;7.05;;;;;;;20.47;100.00;100537.86;1526677;84;22488;-85
2023/08/18 02:26:35;;;;;;;10.75;7.08;;;;;;;20.37;100.00;100526.21;1528695;85;21447;-86
2023/08/18 02:29:01;;;;;;;9.95;5.70;;;;;;;20.27;100.00;100517.22;1515995;85;22120;-87
2023/08/18 02:31:27;;;;;;;10.05;6.53;;;;;;;20.27;100.00;100517.22;1500414;85;21573;-85
2023/08/18 02:33:54;;;;;;;11.97;7.08;;;;;;;20.29;100.00;100523.74;1530967;85;22059;-85
2023/08/18 02:36:21;;;;;;;12.58;6.00;;;;;;;20.21;100.00;100513.20;1498960;85;21407;-86
2023/08/18 02:38:47;;;;;;;12.78;6.22;;;;;;;20.21;100.00;100513.20;1519717;85;21561;-85
2023/08/18 02:41:14;;;;;;;9.80;6.37;;;;;;;20.20;100.00;100504.84;1522070;85;21492;-86
2023/08/18 02:43:43;;;;;;;9.15;6.35;;;;;;;20.14;100.00;100488.19;1502411;85;21432;-85
2023/08/18 02:46:09;;;;;;;12.55;7.10;;;;;;;20.14;100.00;100488.19;1523475;85;21637;-84
2023/08/18 02:48:36;;;;;;;11.35;6.70;;;;;;;20.12;100.00;100480.36;1506271;85;21425;-84
2023/08/18 02:51:05;;;;;;;11.12;7.53;;;;;;;20.08;100.00;100468.35;1524382;85;22328;-84
2023/08/18 02:53:33;;;;;;;9.83;6.72;;;;;;;20.04;100.00;100463.10;1528597;85;21602;-85
2023/08/18 02:55:59;;;;;;;9.10;6.35;;;;;;;19.90;100.00;100433.27;1521127;85;22068;-85
2023/08/18 02:58:30;;;;;;;10.65;6.78;;;;;;;19.90;100.00;100433.27;1517956;85;21620;-84
2023/08/18 03:01:03;;;;;;;12.53;7.00;;;;;;;19.89;100.00;100430.28;1524034;85;21418;-86
2023/08/18 03:03:29;;;;;;;9.28;7.78;;;;;;;19.86;100.00;100422.64;1524035;85;21454;-86
2023/08/18 03:06:02;;;;;;;10.32;6.72;;;;;;;19.82;100.00;100417.69;1525122;85;21558;-86
2023/08/18 03:08:29;;;;;;;8.45;6.45;;;;;;;19.82;100.00;100410.98;1526157;85;22239;-87
2023/08/18 03:10:58;;;;;;;9.93;6.97;;;;;;;19.86;100.00;100416.75;1527774;85;22445;-86
2023/08/18 03:13:26;;;;;;;8.73;6.25;;;;;;;19.92;100.00;100425.31;1500412;85;22940;-85
2023/08/18 03:15:53;;;;;;;15.45;6.90;;;;;;;19.93;100.00;100415.39;1521737;85;22305;-86
2023/08/18 03:18:19;;;;;;;8.28;5.37;;;;;;;19.88;100.00;100399.06;1523670;85;21554;-85
2023/08/18 03:20:51;;;;;;;10.93;7.55;;;;;;;19.85;100.00;100396.28;1521495;85;21411;-86
2023/08/18 03:23:18;;;;;;;11.05;5.80;;;;;;;19.81;100.00;100392.38;1538123;85;21447;-84
2023/08/18 03:25:46;;;;;;;7.53;5.78;;;;;;;19.82;100.00;100397.55;1528104;84;21620;-86
2023/08/18 03:28:12;;;;;;;7.70;5.53;;;;;;;19.89;100.00;100422.22;1511952;84;21476;-85
2023/08/18 03:30:40;;;;;;;9.58;5.60;;;;;;;19.96;100.00;100444.52;1532688;84;21490;-85
2023/08/18 03:33:07;;;;;;;12.13;6.35;;;;;;;20.01;100.00;100463.52;1539439;84;21491;-87
2023/08/18 03:35:35;;;;;;;10.85;5.62;;;;;;;20.07;100.00;100465.37;1527889;84;21476;-87
2023/08/18 03:38:03;;;;;;;9.10;5.58;;;;;;;20.11;100.00;100466.63;1537339;84;21597;-87
2023/08/18 03:40:29;;;;;;;9.93;6.83;;;;;;;20.05;100.00;100467.43;1529817;84;21455;-87
2023/08/18 03:42:55;;;;;;;7.33;6.12;;;;;;;20.04;100.00;100468.48;1529260;84;21539;-87
2023/08/18 03:45:22;;;;;;;9.90;5.40;;;;;;;20.06;100.00;100483.88;1536770;84;22392;-87
2023/08/18 03:47:48;;;;;;;8.53;5.80;;;;;;;20.05;100.00;100488.43;1536438;84;21503;-86
2023/08/18 03:50:16;;;;;;;7.87;5.62;;;;;;;20.04;100.00;100488.63;1535752;84;21535;-86
2023/08/18 03:52:43;;;;;;;8.05;6.28;;;;;;;20.04;100.00;100488.63;1538345;84;22036;-86
2023/08/18 03:55:09;;;;;;;7.37;5.45;;;;;;;20.02;100.00;100490.69;1528033;84;22429;-86
2023/08/18 03:57:35;;;;;;;11.12;7.30;;;;;;;20.02;100.00;100483.47;1539096;84;21491;-87
2023/08/18 04:00:03;;;;;;;19.32;6.58;;;;;;;19.99;100.00;100470.44;1537109;84;21543;-86
2023/08/18 04:02:29;;;;;;;18.62;6.90;;;;;;;19.99;100.00;100458.34;1521487;84;21417;-87
2023/08/18 04:04:55;;;;;;;10.93;6.17;;;;;;;20.01;100.00;100458.97;1528986;84;21417;-87
2023/08/18 04:07:22;;;;;;;10.72;7.12;;;;;;;20.04;100.00;100461.77;1539781;84;21483;-86
2023/08/18 04:09:48;;;;;;;8.70;6.17;;;;;;;20.07;100.00;100466.71;1543527;84;21608;-87
2023/08/18 04:12:14;;;;;;;7.45;6.62;;;;;;;20.14;100.00;100470.72;1523157;84;22305;-87
2023/08/18 04:14:40;;;;;;;7.33;5.72;;;;;;;20.19;100.00;100471.75;1536485;84;21410;-87
2023/08/18 04:17:06;;;;;;;10.03;5.58;;;;;;;20.20;100.00;100472.08;1535947;84;21624;-87
2023/08/18 04:19:33;;;;;;;10.18;6.00;;;;;;;20.19;100.00;100465.03;1534995;84;21417;-87
2023/08/18 04:21:59;;;;;;;15.68;6.90;;;;;;;20.21;100.00;100459.46;1505432;84;22075;-86
2023/08/18 04:24:25;;;;;;;13.62;5.70;;;;;;;20.24;100.00;100457.70;1512482;84;21447;-86
2023/08/18 04:26:59;;;;;;;8.30;6.67;;;;;;;20.23;100.00;100456.05;1510905;84;21440;-86
2023/08/18 04:29:23;;;;;;;8.95;5.90;;;;;;;20.23;100.00;100454.19;1504162;84;21505;-86
2023/08/18 04:31:50;;;;;;;8.78;5.55;;;;;;;20.28;100.00;100466.48;1530972;84;21409;-86
2023/08/18 04:34:17;;;;;;;9.65;5.78;;;;;;;20.33;100.00;100460.98;1527342;84;21546;-87
2023/08/18 04:36:43;;;;;;;6.08;5.58;;;;;;;20.36;100.00;100468.63;1532893;84;22275;-87
2023/08/18 04:39:13;;;;;;;8.93;5.28;;;;;;;20.37;100.00;100476.48;1530394;84;22498;-87
2023/08/18 04:41:39;;;;;;;7.33;5.85;;;;;;;20.29;100.00;100464.09;1532088;84;21447;-87
2023/08/18 04:44:05;;;;;;;8.25;5.65;;;;;;;20.38;100.00;100477.31;1525430;84;21374;-86
2023/08/18 04:46:31;;;;;;;11.40;6.17;;;;;;;20.38;100.00;100478.13;1538476;84;21373;-87
2023/08/18 04:48:58;;;;;;;8.70;6.00;;;;;;;20.38;100.00;100481.34;1513052;84;21484;-87
2023/08/18 04:51:24;;;;;;;8.73;5.65;;;;;;;20.36;100.00;100485.56;1542011;84;21358;-87
2023/08/18 04:53:50;;;;;;;9.53;6.30;;;;;;;20.43;100.00;100493.11;1537828;84;22496;-86
2023/08/18 04:56:16;;;;;;;10.38;5.28;;;;;;;20.51;100.00;100497.41;1530875;84;21439;-87
2023/08/18 04:58:44;;;;;;;7.95;5.95;;;;;;;20.51;100.00;100497.41;1526585;84;21424;-87
2023/08/18 05:01:10;;;;;;;9.60;5.28;;;;;;;20.57;100.00;100497.13;1543242;84;21446;-88
2023/08/18 05:03:36;;;;;;;8.20;6.40;;;;;;;20.59;100.00;100498.56;1512538;84;21417;-88
2023/08/18 05:06:08;;;;;;;7.65;5.20;;;;;;;20.62;100.00;100510.23;1533267;84;21388;-87
2023/08/18 05:08:40;;;;;;;10.95;6.22;;;;;;;20.66;100.00;100510.14;1530610;84;22305;-88
2023/08/18 05:11:09;;;;;;;8.78;5.55;;;;;;;20.72;100.00;100517.36;1534569;84;21579;-87
2023/08/18 05:13:38;;;;;;;12.47;6.37;;;;;;;20.84;100.00;100535.00;1538698;84;21557;-85
2023/08/18 05:16:04;;;;;;;10.58;7.33;;;;;;;20.93;100.00;100541.79;1540034;84;21566;-87
2023/08/18 05:18:33;;;;;;;10.08;6.92;;;;;;;21.00;100.00;100553.86;1538327;84;21432;-86
2023/08/18 05:21:01;;;;;;;10.70;6.27;;;;;;;21.06;100.00;100547.66;1538267;84;21483;-87
2023/08/18 05:23:28;;;;;;;8.18;6.12;;;;;;;21.13;100.00;100554.34;1530629;84;21438;-86
2023/08/18 05:25:56;;;;;;;9.68;6.58;;;;;;;21.18;100.00;100554.02;1527608;84;21477;-85
2023/08/18 05:28:24;;;;;;;10.32;6.22;;;;;;;21.27;100.00;100562.66;1521800;85;21507;-86
2023/08/18 05:30:52;;;;;;;10.98;6.45;;;;;;;21.31;100.00;100555.80;1518338;85;22394;-88
2023/08/18 05:33:18;;;;;;;9.73;6.37;;;;;;;21.33;100.00;100552.91;1521700;85;21454;-88
2023/08/18 05:35:45;;;;;;;11.97;6.03;;;;;;;21.33;100.00;100556.94;1525525;85;21433;-88
2023/08/18 05:38:11;;;;;;;10.30;6.05;;;;;;;21.31;100.00;100553.63;1524688;85;21581;-87
2023/08/18 05:40:46;;;;;;;6.87;5.80;;;;;;;21.29;100.00;100549.83;1499987;85;21410;-84
2023/08/18 05:43:14;;;;;;;8.20;5.67;;;;;;;21.27;100.00;100548.39;1520695;85;22305;-86
2023/08/18 05:45:42;;;;;;;10.10;6.55;;;;;;;21.29;100.00;100544.44;1503211;85;21573;-85
2023/08/18 05:48:08;;;;;;;10.75;5.60;;;;;;;21.29;100.00;100543.59;1521200;85;21484;-85
2023/08/18 05:50:34;;;;;;;8.85;7.28;;;;;;;21.29;100.00;100540.90;1521192;85;21521;-87
2023/08/18 05:53:03;;;;;;;12.00;6.25;;;;;;;21.29;100.00;100539.55;1519969;85;21567;-85
2023/08/18 05:55:30;;;;;;;9.63;6.50;;;;;;;21.31;100.00;100536.95;1504205;85;22490;-84
2023/08/18 05:58:04;;;;;;;12.35;6.22;;;;;;;21.37;100.00;100535.30;1520772;85;21433;-85
2023/08/18 06:00:31;;;;;;;9.48;6.53;;;;;;;21.51;100.00;100536.88;1520323;85;21403;-88
2023/08/18 06:02:59;;;;;;;14.83;6.80;;;;;;;21.73;100.00;100537.36;1522191;85;22482;-85
2023/08/18 06:05:27;;;;;;;7.20;6.47;;;;;;;21.97;100.00;100539.75;1524696;85;21432;-88
2023/08/18 06:07:53;;;;;;;8.40;5.80;;;;;;;22.20;100.00;100539.70;1521820;85;22838;-92
2023/08/18 06:10:20;;;;;;;8.18;6.30;;;;;;;22.39;100.00;100540.04;1526282;85;21461;-92
2023/08/18 06:12:46;;;;;;;13.38;5.75;;;;;;;22.56;100.00;100539.44;1523885;85;21491;-93
2023/08/18 06:15:13;;;;;;;7.45;6.15;;;;;;;22.59;100.00;100534.44;1489160;85;21373;-90
2023/08/18 06:17:40;;;;;;;6.83;5.35;;;;;;;22.78;100.00;100538.48;1530429;85;22512;-91
2023/08/18 06:20:07;;;;;;;8.40;5.78;;;;;;;23.00;100.00;100537.53;1522441;85;21389;-90
2023/08/18 06:22:33;;;;;;;8.13;4.90;;;;;;;23.20;100.00;100541.61;1518620;85;21566;-90
2023/08/18 06:25:00;;;;;;;7.67;5.60;;;;;;;23.41;100.00;100537.58;1518102;84;21484;-91
2023/08/18 06:27:26;;;;;;;8.30;4.65;;;;;;;23.59;100.00;100539.92;1503077;86;21411;-90
2023/08/18 06:29:53;;;;;;;9.98;5.42;;;;;;;23.74;100.00;100540.36;1488980;86;21483;-89
2023/08/18 06:32:19;;;;;;;7.50;4.65;;;;;;;23.85;100.00;100547.67;1510799;86;21476;-88
2023/08/18 06:34:54;;;;;;;6.12;5.42;;;;;;;23.90;100.00;100540.73;1505000;86;21646;-91
2023/08/18 06:37:20;;;;;;;7.37;4.78;;;;;;;23.98;100.00;100545.80;1505675;86;21367;-90
2023/08/18 06:39:47;;;;;;;10.53;5.28;;;;;;;23.86;100.00;100541.73;1516620;85;21446;-91
2023/08/18 06:42:14;;;;;;;7.87;5.05;;;;;;;23.87;100.00;100548.24;1516786;86;21662;-91
2023/08/18 06:44:47;;;;;;;6.65;4.78;;;;;;;23.95;100.00;100543.56;1477090;86;21603;-92
2023/08/18 06:47:13;;;;;;;12.68;6.03;;;;;;;24.04;100.00;100542.16;1513317;86;21551;-90
2023/08/18 06:49:39;;;;;;;7.08;5.72;;;;;;;24.16;100.00;100551.09;1489642;86;21535;-91
2023/08/18 06:52:05;;;;;;;6.53;5.67;;;;;;;24.18;100.00;100554.40;1518955;86;21454;-92
2023/08/18 06:54:31;;;;;;;11.97;6.05;;;;;;;24.24;100.00;100546.70;1513294;85;22371;-86
2023/08/18 06:56:58;;;;;;;9.50;6.58;;;;;;;24.33;100.00;100552.04;1512430;86;21483;-86
2023/08/18 06:59:24;;;;;;;16.73;6.97;;;;;;;24.44;100.00;100545.02;1514252;86;21388;-86
2023/08/18 07:01:50;;;;;;;11.90;6.03;;;;;;;24.56;100.00;100543.66;1511638;86;21610;-86
2023/08/18 07:04:17;;;;;;;6.83;5.75;;;;;;;24.56;100.00;100546.36;1511254;85;21402;-86
2023/08/18 07:06:44;;;;;;;7.60;5.72;;;;;;;24.53;100.00;100545.48;1483031;86;21595;-86
2023/08/18 07:09:12;;;;;;;6.35;5.75;;;;;;;24.66;100.00;100552.00;1512097;86;21417;-85
2023/08/18 07:11:38;;;;;;;9.18;6.17;;;;;;;24.76;100.00;100546.80;1520123;86;21520;-84
2023/08/18 07:14:04;;;;;;;8.15;6.50;;;;;;;24.87;100.00;100551.08;1518861;86;21425;-84
2023/08/18 07:16:31;;;;;;;7.35;6.33;;;;;;;24.92;100.00;100551.19;1494289;86;21425;-84
2023/08/18 07:18:57;;;;;;;8.15;6.37;;;;;;;24.89;100.00;100559.80;1512180;86;21520;-85
2023/08/18 07:21:26;;;;;;;6.62;6.03;;;;;;;24.99;100.00;100554.03;1505485;85;21681;-85
2023/08/18 07:23:52;;;;;;;7.45;6.25;;;;;;;25.10;100.00;100557.77;1508625;86;21447;-86
2023/08/18 07:26:18;;;;;;;8.33;6.30;;;;;;;25.18;100.00;100557.44;1508942;84;21498;-83
2023/08/18 07:28:44;;;;;;;6.90;6.20;;;;;;;25.24;100.00;100552.12;1515277;85;21426;-84
2023/08/18 07:31:11;;;;;;;8.45;6.85;;;;;;;25.24;100.00;100556.19;1512140;86;21603;-85
2023/08/18 07:33:38;;;;;;;7.47;6.00;;;;;;;25.26;100.00;100554.03;1514937;86;21513;-86
2023/08/18 07:36:07;;;;;;;7.90;6.10;;;;;;;25.26;100.00;100549.97;1516252;86;22311;-84
2023/08/18 07:38:34;;;;;;;8.48;6.05;;;;;;;25.33;100.00;100552.02;1498339;86;21535;-85
2023/08/18 07:41:00;;;;;;;8.43;6.37;;;;;;;25.37;100.00;100561.29;1510246;86;21454;-84
2023/08/18 07:43:27;;;;;;;8.53;6.92;;;;;;;25.47;100.00;100558.79;1504009;86;21573;-84
2023/08/18 07:45:55;;;;;;;7.65;6.62;;;;;;;25.51;100.00;100562.64;1515726;86;22401;-84
2023/08/18 07:48:21;;;;;;;8.08;7.22;;;;;;;25.56;100.00;100555.97;1512639;85;21624;-84
2023/08/18 07:50:48;;;;;;;19.70;8.08;;;;;;;25.57;100.00;100559.49;1497394;86;21454;-85
2023/08/18 07:53:14;;;;;;;9.25;7.70;;;;;;;25.65;100.00;100561.27;1513857;86;22525;-84
2023/08/18 07:55:40;;;;;;;11.73;6.83;;;;;;;25.68;100.00;100557.80;1496127;86;22407;-84
2023/08/18 07:58:07;;;;;;;9.45;6.85;;;;;;;25.75;100.00;100557.09;1521712;86;21777;-85
2023/08/18 08:00:33;;;;;;;16.70;7.78;;;;;;;25.91;100.00;100559.03;1510472;85;21388;-83
2023/08/18 08:03:03;;;;;;;8.18;7.45;;;;;;;26.00;100.00;100555.37;1504490;85;21639;-84
2023/08/18 08:05:29;;;;;;;9.00;8.10;;;;;;;26.03;100.00;100550.27;1514565;86;21620;-85
2023/08/18 08:07:55;;;;;;;10.25;7.62;;;;;;;26.11;100.00;100551.22;1511703;86;21498;-84
2023/08/18 08:10:21;;;;;;;9.18;8.10;;;;;;;26.14;100.00;100555.87;1523922;86;21519;-85
2023/08/18 08:12:48;;;;;;;9.03;7.35;;;;;;;26.04;100.00;100550.58;1512795;86;22373;-85
2023/08/18 08:15:16;;;;;;;10.23;8.03;;;;;;;26.02;100.00;100551.35;1514998;86;21432;-84
2023/08/18 08:17:42;;;;;;;10.58;8.05;;;;;;;25.97;100.00;100544.48;1521215;86;21490;-84
2023/08/18 08:20:16;;;;;;;14.75;9.25;;;;;;;26.05;100.00;100548.69;1502343;86;21336;-84
2023/08/18 08:22:49;;;;;;;9.20;8.33;;;;;;;26.04;100.00;100550.58;1510863;85;21963;-85
2023/08/18 08:25:16;;;;;;;9.70;7.58;;;;;;;26.08;100.00;100549.00;1516842;86;21594;-85
2023/08/18 08:27:42;;;;;;;11.75;7.87;;;;;;;26.05;100.00;100551.39;1512960;84;22517;-86
2023/08/18 08:33:42;;;;;;;14.00;8.28;;;;;;;26.16;100.00;100552.39;1513573;86;21566;-85
2023/08/18 08:36:10;;;;;;;9.05;7.87;;;;;;;26.42;100.00;100554.40;1501724;86;21469;-86
2023/08/18 08:38:37;;;;;;;10.20;8.23;;;;;;;26.53;100.00;100556.76;1518974;85;21395;-86
2023/08/18 08:41:04;;;;;;;9.98;7.87;;;;;;;26.55;100.00;100548.63;1513194;86;22504;-86
2023/08/18 08:43:30;;;;;;;7.80;7.00;;;;;;;26.53;100.00;100554.86;1515973;86;21469;-86
2023/08/18 08:45:59;;;;;;;10.68;8.90;;;;;;;26.52;100.00;100551.03;1515382;86;21579;-85
2023/08/18 08:48:34;;;;;;;11.35;9.50;;;;;;;26.60;100.00;100555.22;1527150;86;21484;-85
2023/08/18 08:51:04;;;;;;;8.08;7.28;;;;;;;26.76;100.00;100547.56;1512982;86;21469;-85
2023/08/18 08:53:42;;;;;;;12.37;8.45;;;;;;;26.88;100.00;100548.25;1500008;86;22422;-86
2023/08/18 08:56:09;;;;;;;10.98;7.65;;;;;;;26.98;100.00;100552.44;1513884;85;21438;-86
2023/08/18 08:58:36;;;;;;;11.10;8.28;;;;;;;27.08;100.00;100554.47;1494863;86;21554;-86
2023/08/18 09:01:04;;;;;;;8.85;7.90;;;;;;;27.22;100.00;100559.01;1493048;86;21461;-85
2023/08/18 09:03:30;;;;;;;10.43;9.23;;;;;;;27.28;100.00;100559.34;1513269;85;22268;-86
2023/08/18 09:05:58;;;;;;;9.08;8.23;;;;;;;27.38;100.00;100557.26;1515123;85;21550;-86
2023/08/18 09:08:26;;;;;;;9.50;8.53;;;;;;;27.45;100.00;100564.14;1521503;85;21491;-86
2023/08/18 09:10:52;;;;;;;9.88;8.90;;;;;;;27.66;100.00;100563.80;1511058;86;21527;-86
2023/08/18 09:13:18;;;;;;;15.13;8.43;;;;;;;27.85;100.00;100558.84;1515772;86;21381;-86
2023/08/18 09:15:45;;;;;;;9.75;8.75;;;;;;;27.92;100.00;100558.61;1503912;86;22355;-86
2023/08/18 09:18:12;;;;;;;12.28;9.40;;;;;;;27.87;100.00;100555.30;1507052;86;21418;-86
2023/08/18 09:20:40;;;;;;;11.38;8.88;;;;;;;27.96;100.00;100556.19;1513497;85;21556;-87
2023/08/18 09:23:07;;;;;;;11.83;8.53;;;;;;;28.05;100.00;100551.90;1514640;86;21410;-86
2023/08/18 09:25:37;;;;;;;10.05;8.58;;;;;;;28.20;100.00;100546.59;1513516;86;21640;-86
2023/08/18 09:28:05;;;;;;;8.73;7.83;;;;;;;28.24;100.00;100550.41;1525735;84;22364;-85
2023/08/18 09:30:32;;;;;;;10.53;8.60;;;;;;;28.32;100.00;100550.47;1534594;84;21675;-84
2023/08/18 09:33:03;;;;;;;12.55;9.33;;;;;;;28.43;100.00;100546.77;1536128;84;22295;-86
2023/08/18 09:35:36;;;;;;;11.00;8.40;;;;;;;28.52;100.00;100556.61;1528635;84;21715;-87
2023/08/18 09:38:02;;;;;;;9.48;7.92;;;;;;;28.60;100.00;100553.91;1532801;84;21388;-86
2023/08/18 09:40:29;;;;;;;8.98;8.13;;;;;;;28.71;100.00;100556.41;1539666;84;22274;-87
2023/08/18 09:42:56;;;;;;;11.95;9.23;;;;;;;28.65;100.00;100552.03;1532273;84;21378;-87
2023/08/18 09:45:26;;;;;;;11.85;8.25;;;;;;;28.75;100.00;100546.65;1534049;84;21529;-87
2023/08/18 09:47:56;;;;;;;8.83;7.95;;;;;;;28.78;100.00;100552.92;1536527;84;21446;-86
2023/08/18 09:50:29;;;;;;;14.68;8.90;;;;;;;28.90;100.00;100547.25;1526490;84;21490;-86
2023/08/18 09:52:58;;;;;;;8.98;7.67;;;;;;;28.91;100.00;100546.70;1535083;84;21580;-87
2023/08/18 09:55:34;;;;;;;9.50;8.53;;;;;;;29.08;100.00;100547.89;1539704;84;21438;-86
2023/08/18 09:58:18;;;;;;;11.97;9.05;;;;;;;28.92;100.00;100540.19;1539905;84;21461;-86
2023/08/18 10:00:46;;;;;;;11.48;8.18;;;;;;;28.91;100.00;100537.98;1536399;84;21803;-87
2023/08/18 10:03:16;;;;;;;8.18;7.47;;;;;;;29.14;100.00;100540.81;1539286;84;21351;-81
2023/08/18 10:05:44;;;;;;;;;;;;;;;29.23;100.00;100539.74;1538204;84;21584;-80
2023/08/18 10:08:10;;;;;;;15.53;8.78;;;;;;;29.37;100.00;100545.50;1527895;84;20234;-81
2023/08/18 10:10:37;;;;;;;15.32;8.85;;;;;;;29.46;100.00;100537.06;1525177;84;21616;-81
2023/08/18 10:13:07;;;;;;;10.82;7.60;;;;;;;29.47;100.00;100538.72;1530746;84;22283;-82
2023/08/18 10:15:35;;;;;;;9.63;8.45;;;;;;;29.51;100.00;100540.34;1534670;84;21635;-82
2023/08/18 10:18:07;;;;;;;13.10;9.28;;;;;;;29.56;100.00;100534.36;1536349;84;21521;-88
2023/08/18 10:20:30;;;;;;;12.25;8.20;;;;;;;29.61;100.00;100538.45;1531089;84;21953;-86
2023/08/18 10:22:56;;;;;;;9.18;8.23;;;;;;;29.57;100.00;100537.34;1531067;84;21439;-87
2023/08/18 10:25:25;;;;;;;12.55;8.45;;;;;;;29.44;100.00;100535.17;1506024;84;21568;-88
2023/08/18 10:27:51;;;;;;;9.78;7.45;;;;;;;29.56;100.00;100537.08;1523908;84;21513;-84
2023/08/18 10:30:25;;;;;;;16.55;8.38;;;;;;;29.51;100.00;100535.70;1530579;84;21476;-84
2023/08/18 10:32:54;;;;;;;9.48;6.90;;;;;;;29.54;100.00;100535.16;1529480;84;21631;-86
2023/08/18 10:35:26;;;;;;;11.75;8.23;;;;;;;29.71;100.00;100534.94;1535321;84;22460;-85
2023/08/18 10:37:58;;;;;;;12.80;8.15;;;;;;;29.69;100.00;100538.47;1539176;84;21424;-85
2023/08/18 10:40:34;;;;;;;11.38;8.73;;;;;;;29.72;100.00;100533.02;1541179;84;21424;-85
2023/08/18 10:43:15;;;;;;;13.88;8.68;;;;;;;29.76;100.00;100534.12;1513706;84;21425;-86
2023/08/18 10:45:42;;;;;;;9.00;8.10;;;;;;;29.86;100.00;100539.57;1497732;84;21439;-85
2023/08/18 10:48:10;;;;;;;9.88;8.65;;;;;;;29.85;100.00;100536.58;1504020;84;22429;-87
2023/08/18 10:50:40;;;;;;;26.65;10.93;;;;;;;29.92;100.00;100534.38;1538785;84;21631;-85
2023/08/18 10:53:07;;;;;;;9.75;8.55;;;;;;;30.13;100.00;100535.20;1532434;84;21468;-85
2023/08/18 10:55:34;;;;;;;13.20;8.90;;;;;;;30.37;100.00;100532.71;1534686;84;21387;-86
2023/08/18 10:58:00;;;;;;;10.82;7.85;;;;;;;30.46;100.00;100532.96;1535355;84;21439;-87
2023/08/18 11:00:33;;;;;;;12.33;8.15;;;;;;;30.40;100.00;100530.79;1535153;84;21549;-88
2023/08/18 11:02:59;;;;;;;11.83;9.08;;;;;;;30.43;100.00;100526.69;1540930;84;22319;-85
2023/08/18 11:05:28;;;;;;;9.40;8.50;;;;;;;30.49;100.00;100527.75;1510720;84;21454;-84
2023/08/18 11:07:54;;;;;;;11.93;8.20;;;;;;;30.65;100.00;100528.53;1531150;84;21612;-85
2023/08/18 11:10:22;;;;;;;8.98;8.13;;;;;;;30.73;100.00;100524.41;1528901;84;21498;-86
2023/08/18 11:12:51;;;;;;;10.28;7.95;;;;;;;30.77;100.00;100520.02;1530512;84;21380;-86
2023/08/18 11:15:23;;;;;;;13.48;8.95;;;;;;;30.74;100.00;100512.38;1535498;84;21535;-84
2023/08/18 11:17:50;;;;;;;9.90;7.97;;;;;;;30.91;100.00;100513.43;1535332;84;21381;-86
2023/08/18 11:20:17;;;;;;;10.95;8.05;;;;;;;30.95;100.00;100511.75;1534051;84;21543;-86
2023/08/18 11:22:48;;;;;;;11.15;7.90;;;;;;;30.91;100.00;100516.97;1531319;84;22209;-87
2023/08/18 11:25:16;;;;;;;14.58;9.03;;;;;;;31.09;100.00;100522.89;1533018;84;21351;-84
2023/08/18 11:27:44;;;;;;;9.55;7.08;;;;;;;31.27;100.00;100509.91;1527497;84;22415;-86
2023/08/18 11:30:13;;;;;;;9.43;7.22;;;;;;;31.47;100.00;100508.98;1519778;85;21661;-87